Saint-Philippe-De-Neri, Canada
Current Conditions -  °F | °C
As of 9:53 PM on Saturday 25 Oct 2014 (Local Time) from KFVE Reporting Station
Overcast Overcast  
Wind Chill: 34°   Ceiling: 400
Heat Index: 39°   Visibility: 10mi
Dew Point: 39°   Wind: 7mph
Humidity: 100%   Direction: 130°SE
Pressure: 29.48"   Gusts: NA
Location:  47.45°N, 69.88°W
Report Text: KFVE 260153Z AUTO 13006KT 10SM OVC004 04/04 A2948 RMK AO2 RAB27E36 SLP988 P0000 T00390039
Loading
Personal Weather Stations






























Interactive Weather Map
Tropical Storm Tracking
New forecast layout! Learn more

10-Day Weather Forecast

Advertisements
Track Severe Weather on mobile